createdAt,value
2017-05-25T00:01:53.790Z,67.46
2017-05-25T00:04:23.615Z,67.61
2017-05-25T00:06:53.459Z,67.83
2017-05-25T00:09:23.286Z,67.79
2017-05-25T00:11:52.614Z,68.19
2017-05-25T00:14:22.443Z,68.20
2017-05-25T00:16:52.270Z,68.15
2017-05-25T00:19:22.136Z,68.20
2017-05-25T00:21:51.959Z,68.38
2017-05-25T00:24:21.844Z,68.62
2017-05-25T00:26:51.703Z,68.98
2017-05-25T00:29:21.582Z,69.14
2017-05-25T00:31:51.401Z,69.06
2017-05-25T00:34:21.449Z,69.54
2017-05-25T00:36:51.267Z,69.49
2017-05-25T00:39:21.105Z,69.38
2017-05-25T00:41:50.955Z,69.76
2017-05-25T00:44:20.784Z,69.79
2017-05-25T00:46:50.653Z,70.10
2017-05-25T00:49:20.471Z,70.29
2017-05-25T00:51:50.299Z,69.77
2017-05-25T00:54:20.150Z,69.54
2017-05-25T00:56:49.970Z,70.03
2017-05-25T00:59:19.842Z,70.19
2017-05-25T01:01:49.702Z,70.37
2017-05-25T01:04:19.538Z,70.42
2017-05-25T01:06:49.399Z,70.67
2017-05-25T01:09:19.211Z,70.72
2017-05-25T01:11:49.160Z,71.07
2017-05-25T01:14:18.973Z,70.63
2017-05-25T01:16:48.860Z,70.45
2017-05-25T01:19:18.698Z,71.08
2017-05-25T01:21:48.142Z,70.96
2017-05-25T01:24:18.016Z,71.61
2017-05-25T01:26:47.863Z,71.68
2017-05-25T01:29:17.691Z,71.91
2017-05-25T01:31:47.538Z,71.47
2017-05-25T01:34:17.370Z,71.56
2017-05-25T01:36:47.267Z,71.99
2017-05-25T01:39:17.090Z,72.14
2017-05-25T01:41:46.539Z,71.94
2017-05-25T01:44:16.016Z,71.99
2017-05-25T01:46:45.457Z,71.89
2017-05-25T01:49:15.312Z,72.10
2017-05-25T01:51:45.222Z,72.21
2017-05-25T01:54:15.066Z,72.58
2017-05-25T01:56:44.911Z,72.69
2017-05-25T01:59:14.733Z,72.73
2017-05-25T02:01:44.613Z,73.23
2017-05-25T02:04:14.451Z,73.08
2017-05-25T02:06:44.283Z,73.71
2017-05-25T02:09:14.126Z,73.76
2017-05-25T02:11:43.947Z,73.63
2017-05-25T02:14:13.814Z,73.93
2017-05-25T02:16:43.641Z,73.63
2017-05-25T02:19:13.461Z,73.97
2017-05-25T02:21:43.323Z,73.84
2017-05-25T02:24:13.149Z,73.57
2017-05-25T02:26:43.012Z,73.64
2017-05-25T02:29:12.835Z,73.42
2017-05-25T02:31:42.662Z,73.25
2017-05-25T02:34:12.561Z,73.37
2017-05-25T02:36:42.391Z,73.54
2017-05-25T02:39:12.279Z,73.40
2017-05-25T02:41:42.107Z,73.26
2017-05-25T02:44:11.938Z,73.60
2017-05-25T02:46:41.789Z,73.18
2017-05-25T02:49:11.751Z,73.27
2017-05-25T02:51:41.620Z,73.58
2017-05-25T02:54:11.443Z,73.71
2017-05-25T02:56:41.263Z,73.65
2017-05-25T02:59:11.107Z,73.52
2017-05-25T03:01:40.927Z,73.38
2017-05-25T03:04:10.777Z,73.29
2017-05-25T03:06:40.610Z,73.08
2017-05-25T03:09:10.436Z,73.25
2017-05-25T03:11:40.290Z,73.19
2017-05-25T03:14:10.113Z,73.28
2017-05-25T03:16:40.002Z,73.46
2017-05-25T03:19:09.827Z,73.19
2017-05-25T03:21:39.656Z,73.37
2017-05-25T03:24:09.522Z,73.15
2017-05-25T03:26:39.347Z,72.93
2017-05-25T03:29:09.215Z,73.15
2017-05-25T03:31:39.058Z,73.84
2017-05-25T03:34:08.888Z,73.24
2017-05-25T03:36:38.733Z,73.42
2017-05-25T03:39:08.584Z,73.53
2017-05-25T03:41:38.439Z,73.34
2017-05-25T03:44:08.269Z,73.57
2017-05-25T03:46:38.087Z,73.51
2017-05-25T03:49:07.931Z,73.54
2017-05-25T03:51:37.755Z,73.58
2017-05-25T03:54:07.633Z,73.77
2017-05-25T03:56:37.470Z,73.79
2017-05-25T03:59:07.294Z,73.71
2017-05-25T04:01:37.153Z,73.45
2017-05-25T04:04:06.983Z,73.50
2017-05-25T04:06:36.849Z,73.51
2017-05-25T04:09:06.671Z,73.46
2017-05-25T04:11:36.545Z,73.10
2017-05-25T04:14:06.403Z,73.57
2017-05-25T04:16:36.431Z,73.59
2017-05-25T04:19:06.306Z,73.60
2017-05-25T04:21:36.137Z,73.78
2017-05-25T04:24:05.983Z,73.57
2017-05-25T04:26:35.842Z,73.49
2017-05-25T04:29:05.667Z,73.55
2017-05-25T04:31:35.539Z,73.41
2017-05-25T04:34:05.358Z,73.61
2017-05-25T04:36:35.191Z,73.26
2017-05-25T04:39:04.131Z,73.53
2017-05-25T04:41:33.946Z,73.52
2017-05-25T04:44:03.850Z,73.70
2017-05-25T04:46:33.785Z,73.44
2017-05-25T04:49:03.611Z,73.53
2017-05-25T04:51:33.459Z,73.65
2017-05-25T04:54:03.279Z,73.82
2017-05-25T04:56:33.158Z,73.51
2017-05-25T04:59:03.245Z,73.36
2017-05-25T05:01:33.118Z,73.66
2017-05-25T05:04:02.928Z,73.58
2017-05-25T05:06:32.823Z,73.12
2017-05-25T05:09:02.648Z,73.04
2017-05-25T05:11:32.469Z,72.83
2017-05-25T05:14:02.354Z,72.62
2017-05-25T05:16:32.184Z,72.97
2017-05-25T05:19:02.078Z,72.96
2017-05-25T05:21:31.931Z,72.74
2017-05-25T05:24:01.770Z,72.66
2017-05-25T05:26:31.623Z,72.50
2017-05-25T05:29:01.523Z,72.12
2017-05-25T05:31:31.410Z,71.88
2017-05-25T05:34:01.238Z,71.36
2017-05-25T05:36:31.063Z,71.30
2017-05-25T05:39:01.024Z,71.21
2017-05-25T05:41:30.842Z,71.15
2017-05-25T05:44:00.707Z,71.29
2017-05-25T05:46:30.527Z,71.58
2017-05-25T05:49:00.495Z,71.60
2017-05-25T05:51:30.330Z,71.50
2017-05-25T05:54:00.197Z,71.36
2017-05-25T05:56:30.049Z,71.32
2017-05-25T05:58:59.895Z,71.27
2017-05-25T06:01:29.778Z,71.12
2017-05-25T06:03:59.705Z,71.21
2017-05-25T06:06:29.537Z,71.03
2017-05-25T06:08:59.415Z,71.06
2017-05-25T06:11:29.260Z,71.23
2017-05-25T06:13:59.144Z,70.44
2017-05-25T06:16:29.030Z,70.13
2017-05-25T06:18:58.861Z,70.21
2017-05-25T06:21:28.729Z,70.31
2017-05-25T06:23:58.559Z,70.46
2017-05-25T06:26:28.433Z,70.68
2017-05-25T06:28:58.250Z,70.92
2017-05-25T06:31:28.095Z,71.00
2017-05-25T06:33:57.949Z,70.71
2017-05-25T06:36:27.841Z,71.03
2017-05-25T06:38:57.727Z,71.19
2017-05-25T06:41:27.354Z,70.90
2017-05-25T06:43:57.270Z,71.10
2017-05-25T06:46:27.127Z,70.69
2017-05-25T06:48:56.939Z,70.36
2017-05-25T06:51:26.811Z,70.25
2017-05-25T06:53:56.643Z,69.16
2017-05-25T06:56:26.524Z,68.90
2017-05-25T06:58:56.343Z,68.55
2017-05-25T07:01:26.175Z,67.95
2017-05-25T07:03:56.025Z,67.91
2017-05-25T07:06:25.855Z,67.59
2017-05-25T07:08:55.732Z,68.04
2017-05-25T07:11:25.554Z,67.90
2017-05-25T07:13:55.428Z,67.15
2017-05-25T07:16:25.242Z,67.17
2017-05-25T07:18:55.094Z,66.56
2017-05-25T07:21:25.003Z,65.84
2017-05-25T07:23:54.844Z,66.25
2017-05-25T07:26:24.713Z,66.08
2017-05-25T07:28:54.530Z,67.06
2017-05-25T07:31:24.386Z,66.78
2017-05-25T07:33:54.235Z,65.99
2017-05-25T07:36:24.059Z,65.03
2017-05-25T07:38:53.936Z,64.34
2017-05-25T07:41:23.757Z,63.67
2017-05-25T07:43:53.581Z,63.22
2017-05-25T07:46:23.427Z,63.84
2017-05-25T07:48:53.238Z,64.15
2017-05-25T07:51:23.126Z,64.63
2017-05-25T07:53:53.046Z,65.22
2017-05-25T07:56:22.875Z,64.56
2017-05-25T07:58:52.731Z,63.78
2017-05-25T08:01:22.560Z,63.05
2017-05-25T08:03:52.446Z,62.89
2017-05-25T08:06:22.262Z,62.88
2017-05-25T08:08:52.078Z,63.62
2017-05-25T08:11:21.938Z,63.40
2017-05-25T08:13:51.760Z,62.96
2017-05-25T08:18:58.256Z,62.94
2017-05-25T08:21:28.082Z,62.54
2017-05-25T08:23:57.957Z,62.41
2017-05-25T08:26:27.763Z,62.20
2017-05-25T08:28:57.583Z,61.00
2017-05-25T08:31:27.428Z,59.40
2017-05-25T08:33:57.242Z,58.40
2017-05-25T08:36:27.119Z,56.47
2017-05-25T08:38:56.929Z,57.38
2017-05-25T08:41:26.741Z,57.56
2017-05-25T08:43:56.589Z,57.74
2017-05-25T08:46:26.411Z,58.09
2017-05-25T08:48:56.285Z,58.01
2017-05-25T08:51:26.124Z,58.31
2017-05-25T08:53:55.938Z,58.12
2017-05-25T08:56:25.793Z,57.92
2017-05-25T08:58:55.614Z,57.58
2017-05-25T09:01:25.482Z,56.27
2017-05-25T09:03:55.304Z,53.54
2017-05-25T09:06:25.115Z,54.40
2017-05-25T09:08:54.955Z,55.08
2017-05-25T09:11:24.766Z,56.13
2017-05-25T09:13:54.703Z,57.54
2017-05-25T09:16:24.548Z,58.77
2017-05-25T09:18:54.974Z,58.95
2017-05-25T09:21:24.827Z,58.87
2017-05-25T09:23:54.642Z,58.44
2017-05-25T09:26:24.508Z,57.53
2017-05-25T09:28:54.326Z,56.17
2017-05-25T09:31:24.147Z,55.48
2017-05-25T09:33:53.989Z,55.24
2017-05-25T09:36:23.809Z,53.98
2017-05-25T09:38:53.690Z,53.94
2017-05-25T09:41:23.512Z,54.20
2017-05-25T09:43:53.331Z,54.74
2017-05-25T09:46:23.216Z,55.23
2017-05-25T09:48:53.040Z,55.11
2017-05-25T09:51:22.903Z,56.38
2017-05-25T09:53:52.720Z,57.81
2017-05-25T09:56:22.547Z,58.01
2017-05-25T09:58:52.396Z,57.46
2017-05-25T10:01:22.229Z,57.52
2017-05-25T10:03:52.073Z,57.96
2017-05-25T10:06:21.887Z,57.94
2017-05-25T10:08:51.704Z,57.79
2017-05-25T10:11:21.533Z,57.71
2017-05-25T10:13:51.392Z,57.16
2017-05-25T10:16:21.263Z,57.75
2017-05-25T10:18:51.075Z,57.73
2017-05-25T10:21:20.890Z,57.21
2017-05-25T10:23:50.735Z,56.84
2017-05-25T10:26:20.554Z,56.38
2017-05-25T10:28:50.410Z,55.97
2017-05-25T10:31:20.221Z,55.67
2017-05-25T10:33:50.081Z,54.74
2017-05-25T10:36:19.893Z,54.83
2017-05-25T10:38:49.711Z,53.78
2017-05-25T10:41:19.565Z,53.79
2017-05-25T10:43:49.388Z,54.06
2017-05-25T10:46:19.251Z,53.92
2017-05-25T10:48:49.058Z,54.48
2017-05-25T10:51:18.870Z,53.43
2017-05-25T10:53:48.706Z,54.27
2017-05-25T10:56:18.538Z,53.92
2017-05-25T10:58:48.444Z,53.89
2017-05-25T11:01:18.222Z,53.65
2017-05-25T11:03:48.095Z,54.26
2017-05-25T11:06:17.718Z,53.56
2017-05-25T11:08:47.546Z,55.51
2017-05-25T11:11:17.378Z,56.19
2017-05-25T11:13:47.192Z,56.69
2017-05-25T11:16:17.071Z,57.19
2017-05-25T11:18:46.891Z,56.08
2017-05-25T11:21:16.723Z,56.40
2017-05-25T11:23:46.575Z,55.78
2017-05-25T11:26:16.386Z,56.21
2017-05-25T11:28:46.261Z,56.18
2017-05-25T11:31:16.079Z,55.69
2017-05-25T11:33:45.899Z,57.63
2017-05-25T11:36:15.743Z,57.05
2017-05-25T11:38:45.558Z,56.93
2017-05-25T11:41:15.435Z,57.04
2017-05-25T11:43:45.254Z,58.04
2017-05-25T11:46:15.075Z,56.88
2017-05-25T11:48:44.932Z,57.12
2017-05-25T11:51:14.745Z,56.94
2017-05-25T11:53:44.606Z,56.75
2017-05-25T11:56:14.434Z,56.27
2017-05-25T11:58:44.250Z,57.27
2017-05-25T12:01:14.098Z,57.76
2017-05-25T12:03:43.931Z,57.55
2017-05-25T12:06:13.814Z,57.26
2017-05-25T12:08:43.634Z,57.04
2017-05-25T12:11:13.462Z,56.82
2017-05-25T12:13:43.376Z,57.57
2017-05-25T12:16:13.202Z,57.91
2017-05-25T12:18:43.083Z,57.21
2017-05-25T12:21:12.906Z,56.97
2017-05-25T12:23:42.727Z,57.46
2017-05-25T12:26:12.571Z,57.75
2017-05-25T12:28:42.478Z,57.19
2017-05-25T12:31:12.362Z,57.09
2017-05-25T12:33:42.184Z,57.45
2017-05-25T12:36:12.017Z,57.25
2017-05-25T12:38:41.869Z,58.00
2017-05-25T12:41:11.699Z,57.80
2017-05-25T12:43:41.578Z,57.73
2017-05-25T12:46:11.403Z,57.19
2017-05-25T12:48:41.235Z,57.99
2017-05-25T12:51:11.085Z,58.30
2017-05-25T12:53:40.915Z,57.60
2017-05-25T12:56:10.789Z,57.68
2017-05-25T12:58:40.622Z,57.25
2017-05-25T13:01:10.459Z,56.36
2017-05-25T13:03:41.018Z,55.77
2017-05-25T13:06:10.851Z,56.37
2017-05-25T13:08:40.722Z,55.95
2017-05-25T13:11:10.538Z,56.71
2017-05-25T13:13:40.423Z,57.93
2017-05-25T13:16:10.246Z,57.74
2017-05-25T13:18:40.079Z,57.68
2017-05-25T13:21:09.925Z,57.67
2017-05-25T13:23:39.770Z,58.30
2017-05-25T13:26:09.266Z,57.62
2017-05-25T13:28:39.086Z,58.74
2017-05-25T13:31:08.942Z,57.48
2017-05-25T13:33:38.807Z,57.35
2017-05-25T13:36:08.630Z,56.39
2017-05-25T13:38:38.491Z,56.68
2017-05-25T13:41:08.343Z,57.12
2017-05-25T13:43:38.203Z,57.14
2017-05-25T13:46:08.038Z,56.92
2017-05-25T13:48:37.873Z,56.94
2017-05-25T13:51:07.729Z,56.40
2017-05-25T13:53:37.565Z,56.67
2017-05-25T13:56:07.431Z,56.23
2017-05-25T13:58:37.267Z,56.37
2017-05-25T14:01:07.094Z,56.01
2017-05-25T14:03:36.950Z,56.77
2017-05-25T14:06:06.810Z,56.40
2017-05-25T14:08:36.674Z,56.65
2017-05-25T14:11:06.498Z,56.08
2017-05-25T14:13:36.339Z,55.87
2017-05-25T14:16:06.282Z,55.69
2017-05-25T14:18:36.108Z,55.42
2017-05-25T14:21:05.981Z,53.03
2017-05-25T14:23:35.805Z,54.06
2017-05-25T14:26:05.634Z,54.94
2017-05-25T14:28:35.491Z,55.27
2017-05-25T14:31:05.327Z,54.64
2017-05-25T14:33:35.234Z,54.84
2017-05-25T14:36:05.067Z,55.23
2017-05-25T14:38:34.988Z,55.81
2017-05-25T14:41:04.855Z,55.43
2017-05-25T14:43:34.688Z,54.40
2017-05-25T14:46:04.542Z,53.69
2017-05-25T14:48:34.369Z,54.29
2017-05-25T14:51:04.199Z,54.53
2017-05-25T14:53:34.047Z,54.57
2017-05-25T14:56:03.867Z,55.21
2017-05-25T14:58:33.724Z,55.16
2017-05-25T15:01:03.546Z,55.66
2017-05-25T15:03:33.389Z,55.28
2017-05-25T15:06:03.201Z,55.22
2017-05-25T15:08:33.024Z,54.45
2017-05-25T15:11:02.892Z,54.41
2017-05-25T15:13:32.705Z,54.71
2017-05-25T15:16:02.546Z,54.71
2017-05-25T15:18:32.358Z,54.82
2017-05-25T15:21:02.180Z,54.39
2017-05-25T15:23:32.048Z,54.79
2017-05-25T15:26:01.878Z,54.72
2017-05-25T15:28:31.736Z,55.15
2017-05-25T15:31:01.587Z,54.96
2017-05-25T15:33:31.397Z,55.14
2017-05-25T15:36:01.315Z,54.65
2017-05-25T15:38:31.146Z,54.16
2017-05-25T15:41:01.106Z,54.10
2017-05-25T15:43:30.915Z,54.54
2017-05-25T15:46:00.847Z,54.55
2017-05-25T15:48:30.687Z,54.84
2017-05-25T15:51:00.506Z,54.92
2017-05-25T15:53:30.387Z,54.23
2017-05-25T15:56:00.224Z,52.96
2017-05-25T15:58:30.096Z,52.49
2017-05-25T16:00:59.963Z,53.30
2017-05-25T16:03:29.798Z,52.39
2017-05-25T16:05:59.648Z,52.48
2017-05-25T16:08:29.471Z,52.66
2017-05-25T16:10:59.281Z,52.80
2017-05-25T16:13:29.113Z,53.43
2017-05-25T16:15:58.926Z,53.68
2017-05-25T16:18:28.789Z,53.46
2017-05-25T16:20:58.607Z,53.58
2017-05-25T16:23:28.463Z,54.00
2017-05-25T16:25:58.274Z,54.30
2017-05-25T16:28:28.096Z,54.14
2017-05-25T16:30:57.937Z,54.51
2017-05-25T16:33:27.756Z,54.66
2017-05-25T16:35:57.630Z,54.70
2017-05-25T16:38:27.462Z,54.63
2017-05-25T16:40:57.273Z,53.90
2017-05-25T16:43:27.128Z,53.97
2017-05-25T16:45:56.566Z,54.20
2017-05-25T16:48:26.399Z,54.28
2017-05-25T16:50:56.209Z,53.93
2017-05-25T16:53:26.062Z,54.57
2017-05-25T16:55:55.880Z,54.29
2017-05-25T16:58:25.699Z,54.14
2017-05-25T17:00:55.539Z,54.93
2017-05-25T17:03:25.359Z,54.60
2017-05-25T17:05:55.222Z,54.91
2017-05-25T17:08:25.040Z,55.06
2017-05-25T17:10:54.882Z,54.69
2017-05-25T17:13:24.717Z,54.73
2017-05-25T17:15:54.547Z,54.66
2017-05-25T17:18:24.390Z,54.75
2017-05-25T17:20:54.203Z,55.12
2017-05-25T17:23:24.052Z,55.41
2017-05-25T17:25:53.883Z,55.59
2017-05-25T17:28:23.703Z,55.44
2017-05-25T17:30:53.547Z,55.80
2017-05-25T17:33:23.366Z,56.08
2017-05-25T17:35:53.266Z,56.66
2017-05-25T17:38:23.091Z,56.56
2017-05-25T17:40:52.941Z,56.57
2017-05-25T17:43:22.793Z,56.56
2017-05-25T17:45:52.613Z,56.90
2017-05-25T17:48:22.483Z,57.27
2017-05-25T17:50:52.302Z,57.55
2017-05-25T17:53:22.118Z,57.84
2017-05-25T17:55:51.962Z,57.88
2017-05-25T17:58:21.774Z,58.16
2017-05-25T18:00:51.627Z,58.46
2017-05-25T18:03:21.455Z,58.76
2017-05-25T18:05:51.318Z,58.85
2017-05-25T18:08:21.139Z,59.07
2017-05-25T18:10:50.999Z,59.11
2017-05-25T18:13:20.842Z,59.12
2017-05-25T18:15:50.677Z,59.17
2017-05-25T18:18:20.528Z,59.26
2017-05-25T18:20:50.342Z,59.60
2017-05-25T18:23:20.159Z,59.52
2017-05-25T18:25:50.005Z,59.71
2017-05-25T18:28:19.839Z,59.90
2017-05-25T18:30:49.686Z,60.00
2017-05-25T18:33:19.506Z,60.13
2017-05-25T18:35:49.314Z,60.06
2017-05-25T18:38:19.151Z,60.30
2017-05-25T18:40:48.974Z,60.37
2017-05-25T18:43:18.629Z,60.52
2017-05-25T18:45:48.459Z,60.48
2017-05-25T18:48:18.282Z,60.77
2017-05-25T18:50:48.135Z,61.01
2017-05-25T18:53:17.946Z,61.27
2017-05-25T18:55:47.806Z,61.35
2017-05-25T18:58:17.618Z,61.51
2017-05-25T19:00:47.435Z,61.59
2017-05-25T19:03:17.278Z,61.71
2017-05-25T19:05:47.099Z,61.89
2017-05-25T19:08:16.961Z,62.15
2017-05-25T19:10:46.774Z,62.29
2017-05-25T19:13:16.614Z,62.67
2017-05-25T19:15:46.435Z,62.92
2017-05-25T19:18:16.256Z,63.08
2017-05-25T19:20:46.100Z,63.23
2017-05-25T19:23:15.915Z,63.29
2017-05-25T19:25:45.778Z,63.76
2017-05-25T19:28:15.596Z,64.00
2017-05-25T19:30:45.409Z,64.02
2017-05-25T19:33:15.247Z,64.08
2017-05-25T19:35:45.062Z,64.14
2017-05-25T19:38:14.923Z,64.66
2017-05-25T19:40:44.738Z,64.73
2017-05-25T19:43:14.602Z,65.05
2017-05-25T19:45:44.444Z,65.31
2017-05-25T19:48:14.303Z,65.39
2017-05-25T19:50:44.132Z,65.52
2017-05-25T19:53:13.957Z,65.24
2017-05-25T19:55:43.802Z,65.50
2017-05-25T19:58:13.617Z,65.90
2017-05-25T20:00:43.482Z,66.16
2017-05-25T20:03:13.307Z,66.60
2017-05-25T20:05:43.122Z,66.42
2017-05-25T20:08:12.973Z,66.17
2017-05-25T20:10:42.798Z,66.37
2017-05-25T20:13:12.651Z,66.66
2017-05-25T20:15:42.473Z,66.88
2017-05-25T20:18:12.343Z,66.74
2017-05-25T20:20:42.170Z,66.94
2017-05-25T20:23:12.004Z,67.24
2017-05-25T20:25:41.847Z,67.20
2017-05-25T20:28:11.667Z,67.35
2017-05-25T20:30:41.514Z,67.88
2017-05-25T20:33:11.331Z,67.99
2017-05-25T20:35:41.167Z,68.27
2017-05-25T20:38:11.009Z,68.31
2017-05-25T20:40:40.822Z,68.40
2017-05-25T20:43:10.756Z,68.37
2017-05-25T20:45:40.567Z,68.18
2017-05-25T20:48:10.379Z,68.56
2017-05-25T20:50:40.222Z,68.72
2017-05-25T20:53:10.052Z,69.01
2017-05-25T20:55:39.914Z,69.19
2017-05-25T20:58:09.735Z,69.20
2017-05-25T21:00:39.563Z,69.51
2017-05-25T21:03:09.409Z,69.67
2017-05-25T21:05:39.218Z,70.09
2017-05-25T21:08:09.064Z,70.13
2017-05-25T21:10:38.885Z,70.26
2017-05-25T21:13:08.703Z,70.26
2017-05-25T21:15:38.538Z,70.20
2017-05-25T21:18:08.351Z,70.40
2017-05-25T21:20:38.207Z,70.52
2017-05-25T21:23:08.027Z,70.68
2017-05-25T21:25:37.903Z,70.63
2017-05-25T21:28:07.743Z,70.65
2017-05-25T21:30:37.553Z,70.79
2017-05-25T21:33:07.407Z,70.63
2017-05-25T21:35:37.222Z,70.88
2017-05-25T21:38:07.066Z,70.85
2017-05-25T21:40:36.904Z,70.95
2017-05-25T21:43:06.733Z,70.97
2017-05-25T21:45:36.593Z,71.22
2017-05-25T21:48:06.410Z,71.12
2017-05-25T21:50:36.242Z,71.22
2017-05-25T21:53:06.089Z,71.33
2017-05-25T21:55:35.909Z,71.27
2017-05-25T21:58:05.770Z,71.50
2017-05-25T22:00:35.586Z,71.40
2017-05-25T22:03:05.400Z,71.31
2017-05-25T22:05:35.245Z,71.67
2017-05-25T22:08:05.063Z,71.64
2017-05-25T22:10:34.919Z,71.73
2017-05-25T22:13:04.739Z,72.26
2017-05-25T22:15:34.563Z,72.21
2017-05-25T22:18:04.419Z,72.06
2017-05-25T22:20:34.249Z,72.17
2017-05-25T22:23:04.106Z,72.14
2017-05-25T22:25:33.937Z,72.39
2017-05-25T22:28:03.782Z,72.45
2017-05-25T22:30:33.667Z,72.52
2017-05-25T22:33:03.495Z,72.48
2017-05-25T22:35:33.349Z,72.43
2017-05-25T22:38:03.171Z,72.61
2017-05-25T22:40:32.998Z,72.77
2017-05-25T22:43:02.873Z,72.75
2017-05-25T22:45:32.693Z,72.79
2017-05-25T22:48:02.559Z,72.87
2017-05-25T22:50:32.380Z,73.04
2017-05-25T22:53:02.218Z,73.26
2017-05-25T22:55:32.088Z,73.09
2017-05-25T22:58:01.938Z,73.05
2017-05-25T23:00:31.793Z,73.19
2017-05-25T23:03:01.687Z,73.31
2017-05-25T23:05:31.522Z,73.27
2017-05-25T23:08:01.467Z,73.08
2017-05-25T23:10:31.327Z,73.22
2017-05-25T23:13:01.338Z,73.49
2017-05-25T23:15:31.154Z,73.26
2017-05-25T23:18:00.998Z,73.52
2017-05-25T23:20:30.894Z,73.55
2017-05-25T23:23:00.799Z,73.37
2017-05-25T23:25:30.647Z,73.30
2017-05-25T23:28:00.469Z,73.48
2017-05-25T23:30:30.298Z,73.75
2017-05-25T23:33:00.154Z,73.57
2017-05-25T23:35:29.998Z,73.65
2017-05-25T23:37:59.877Z,73.71
2017-05-25T23:40:29.699Z,73.59
2017-05-25T23:42:59.513Z,73.72
2017-05-25T23:45:29.441Z,74.11
2017-05-25T23:47:59.287Z,73.93
2017-05-25T23:50:29.141Z,73.96
2017-05-25T23:52:58.965Z,73.90
2017-05-25T23:55:28.802Z,74.06
2017-05-25T23:57:58.653Z,73.94
